Memphis, TN (37501)

11:04 PM CST on December 02, 2016 (GMT -0600)
Tioga Environmental in the Pinch District | | Change Station

Elev 230 ft 35.15 °N, 90.05 °W | Updated 37 seconds ago

Overcast
Overcast
50.5 °F
Feels Like 50.5 °F
N
1.3
Wind Variable Wind from NE
Gusts 2.5 mph

Today
High -- | Low -- °F
--% Chance of Precip.
Yesterday
High -- | Low -- °F
Precip. -- in
Pressure 30.29 in
Visibility 10.0 miles
Clouds Mostly Cloudy 23000 ft
Overcast 25000 ft
Dew Point 36 °F
Humidity 57%
Rainfall 0.00 in
Snow Depth Not available.
6:51 AM 4:48 PM
Waxing Crescent, 12% visible
METAR KMEM 030454Z 05005KT 10SM BKN230 OVC250 10/02 A3029 RMK AO2 SLP256 T01000017
Pressure 30.29 in
Visibility 10.0 miles
Clouds Mostly Cloudy 23000 ft
Overcast 25000 ft
Dew Point 36 °F
Humidity 57%
Rainfall 0.00 in
Snow Depth Not available.
6:51 AM 4:48 PM
Waxing Crescent, 12% visible
METAR KMEM 030454Z 05005KT 10SM BKN230 OVC250 10/02 A3029 RMK AO2 SLP256 T01000017

10-Day Weather Forecast

Almanac

Astronomy

Dec. 02, 2016 Rise Set
Actual Time
Civil Twilight
Nautical Twilight
Astronomical Twilight
Moon
Length of Visible Light
Length of Day
Tomorrow will be .
, % of the Moon is Illuminated

Today's Extremes

State Highs State Lows

Community

WunderPhotos

Upload Photos

1,955,405 photos uploaded!

WunderBlog® & News

Nearby

Air Quality

  Air Quality AQ Index Pollutant
Not available.

Snow Depth

Station Depth Elevation

Earthquake Activity

City Distance Mag. Time & Date
Minimum magnitude displayed is 2.5.

Coastal Water Temperatures

Place Temperature

Stations

Nearby Weather Stations

Station Location Temp. Windchill Dew Point Humidity Wind Precip. Elev Updated Type
                   

Watches & Warnings

There are currently no watches in effect.